sensor_id;sensor_type;location;lat;lon;timestamp;pressure;altitude;pressure_sealevel;temperature;humidity
8569;BME280;4322;51.104;-4.162;2022-10-16T00:01:06;102159.94;;;12.07;100.00
8569;BME280;4322;51.104;-4.162;2022-10-16T00:03:35;102176.47;;;12.08;100.00
8569;BME280;4322;51.104;-4.162;2022-10-16T00:06:05;102186.84;;;12.11;100.00
8569;BME280;4322;51.104;-4.162;2022-10-16T00:08:34;102186.75;;;12.14;100.00
8569;BME280;4322;51.104;-4.162;2022-10-16T00:11:04;102191.97;;;12.14;100.00
8569;BME280;4322;51.104;-4.162;2022-10-16T00:13:33;102192.06;;;12.11;100.00
8569;BME280;4322;51.104;-4.162;2022-10-16T00:16:02;102186.94;;;12.08;100.00
8569;BME280;4322;51.104;-4.162;2022-10-16T00:18:31;102184.38;;;12.06;100.00
8569;BME280;4322;51.104;-4.162;2022-10-16T00:21:02;102181.69;;;12.08;100.00
8569;BME280;4322;51.104;-4.162;2022-10-16T00:23:32;102187.69;;;12.11;100.00
8569;BME280;4322;51.104;-4.162;2022-10-16T00:26:01;102174.56;;;12.13;100.00
8569;BME280;4322;51.104;-4.162;2022-10-16T00:28:30;102170.16;;;12.15;100.00
8569;BME280;4322;51.104;-4.162;2022-10-16T00:30:58;102173.16;;;12.29;100.00
8569;BME280;4322;51.104;-4.162;2022-10-16T00:33:26;102166.38;;;12.48;100.00
8569;BME280;4322;51.104;-4.162;2022-10-16T00:35:54;102159.78;;;12.63;100.00
8569;BME280;4322;51.104;-4.162;2022-10-16T00:38:26;102156.03;;;12.70;100.00
8569;BME280;4322;51.104;-4.162;2022-10-16T00:40:56;102168.13;;;12.72;100.00
8569;BME280;4322;51.104;-4.162;2022-10-16T00:43:36;102162.81;;;12.75;100.00
8569;BME280;4322;51.104;-4.162;2022-10-16T00:46:11;102174.91;;;12.78;100.00
8569;BME280;4322;51.104;-4.162;2022-10-16T00:48:42;102181.00;;;12.78;100.00
8569;BME280;4322;51.104;-4.162;2022-10-16T00:51:10;102186.44;;;12.72;100.00
8569;BME280;4322;51.104;-4.162;2022-10-16T00:53:38;102193.56;;;12.69;100.00
8569;BME280;4322;51.104;-4.162;2022-10-16T00:56:08;102205.91;;;12.65;100.00
8569;BME280;4322;51.104;-4.162;2022-10-16T00:58:36;102213.84;;;12.62;100.00
8569;BME280;4322;51.104;-4.162;2022-10-16T01:01:04;102213.63;;;12.68;100.00
8569;BME280;4322;51.104;-4.162;2022-10-16T01:03:34;102220.25;;;12.78;100.00
8569;BME280;4322;51.104;-4.162;2022-10-16T01:06:13;102215.50;;;12.89;100.00
8569;BME280;4322;51.104;-4.162;2022-10-16T01:08:49;102207.22;;;13.01;100.00
8569;BME280;4322;51.104;-4.162;2022-10-16T01:11:27;102202.63;;;13.08;100.00
8569;BME280;4322;51.104;-4.162;2022-10-16T01:14:00;102219.00;;;13.13;100.00
8569;BME280;4322;51.104;-4.162;2022-10-16T01:16:34;102215.44;;;13.16;100.00
8569;BME280;4322;51.104;-4.162;2022-10-16T01:19:09;102218.88;;;13.18;100.00
8569;BME280;4322;51.104;-4.162;2022-10-16T01:21:42;102219.69;;;13.18;100.00
8569;BME280;4322;51.104;-4.162;2022-10-16T01:24:17;102224.94;;;13.18;100.00
8569;BME280;4322;51.104;-4.162;2022-10-16T01:27:05;102220.63;;;13.17;100.00
8569;BME280;4322;51.104;-4.162;2022-10-16T01:29:38;102233.66;;;13.19;100.00
8569;BME280;4322;51.104;-4.162;2022-10-16T01:32:11;102240.53;;;13.21;100.00
8569;BME280;4322;51.104;-4.162;2022-10-16T01:34:48;102255.41;;;13.21;100.00
8569;BME280;4322;51.104;-4.162;2022-10-16T01:37:24;102260.69;;;13.19;100.00
8569;BME280;4322;51.104;-4.162;2022-10-16T01:39:58;102258.13;;;13.18;100.00
8569;BME280;4322;51.104;-4.162;2022-10-16T01:42:34;102275.53;;;13.19;100.00
8569;BME280;4322;51.104;-4.162;2022-10-16T01:45:04;102275.59;;;13.17;100.00
8569;BME280;4322;51.104;-4.162;2022-10-16T01:47:35;102271.25;;;13.16;100.00
8569;BME280;4322;51.104;-4.162;2022-10-16T01:50:05;102279.09;;;13.18;100.00
8569;BME280;4322;51.104;-4.162;2022-10-16T01:52:37;102296.47;;;13.19;100.00
8569;BME280;4322;51.104;-4.162;2022-10-16T01:55:08;102312.06;;;13.22;100.00
8569;BME280;4322;51.104;-4.162;2022-10-16T01:57:42;102322.44;;;13.25;100.00
8569;BME280;4322;51.104;-4.162;2022-10-16T02:00:13;102335.38;;;13.29;100.00
8569;BME280;4322;51.104;-4.162;2022-10-16T02:02:45;102326.81;;;13.24;100.00
8569;BME280;4322;51.104;-4.162;2022-10-16T02:05:20;102338.47;;;13.16;100.00
8569;BME280;4322;51.104;-4.162;2022-10-16T02:07:49;102371.00;;;13.08;100.00
8569;BME280;4322;51.104;-4.162;2022-10-16T02:10:17;102383.53;;;12.99;100.00
8569;BME280;4322;51.104;-4.162;2022-10-16T02:12:50;102377.03;;;12.84;100.00
8569;BME280;4322;51.104;-4.162;2022-10-16T02:15:22;102377.41;;;12.72;100.00
8569;BME280;4322;51.104;-4.162;2022-10-16T02:17:49;102386.44;;;12.64;100.00
8569;BME280;4322;51.104;-4.162;2022-10-16T02:20:19;102383.94;;;12.59;100.00
8569;BME280;4322;51.104;-4.162;2022-10-16T02:22:50;102392.81;;;12.55;100.00
8569;BME280;4322;51.104;-4.162;2022-10-16T02:25:23;102402.50;;;12.51;100.00
8569;BME280;4322;51.104;-4.162;2022-10-16T02:27:57;102416.56;;;12.47;100.00
8569;BME280;4322;51.104;-4.162;2022-10-16T02:30:31;102427.25;;;12.40;100.00
8569;BME280;4322;51.104;-4.162;2022-10-16T02:33:03;102424.00;;;12.32;100.00
8569;BME280;4322;51.104;-4.162;2022-10-16T02:35:34;102419.69;;;12.31;100.00
8569;BME280;4322;51.104;-4.162;2022-10-16T02:38:04;102426.44;;;12.38;100.00
8569;BME280;4322;51.104;-4.162;2022-10-16T02:40:33;102434.13;;;12.44;100.00
8569;BME280;4322;51.104;-4.162;2022-10-16T02:43:03;102429.50;;;12.52;100.00
8569;BME280;4322;51.104;-4.162;2022-10-16T02:45:32;102434.56;;;12.58;100.00
8569;BME280;4322;51.104;-4.162;2022-10-16T02:48:00;102439.66;;;12.61;100.00
8569;BME280;4322;51.104;-4.162;2022-10-16T02:50:28;102440.59;;;12.60;100.00
8569;BME280;4322;51.104;-4.162;2022-10-16T02:52:56;102432.78;;;12.59;100.00
8569;BME280;4322;51.104;-4.162;2022-10-16T02:55:23;102411.03;;;12.58;100.00
8569;BME280;4322;51.104;-4.162;2022-10-16T02:57:51;102405.72;;;12.60;100.00
8569;BME280;4322;51.104;-4.162;2022-10-16T03:00:22;102406.50;;;12.63;100.00
8569;BME280;4322;51.104;-4.162;2022-10-16T03:02:50;102423.75;;;12.69;100.00
8569;BME280;4322;51.104;-4.162;2022-10-16T03:05:17;102416.72;;;12.71;100.00
8569;BME280;4322;51.104;-4.162;2022-10-16T03:07:50;102410.00;;;12.62;100.00
8569;BME280;4322;51.104;-4.162;2022-10-16T03:10:19;102422.66;;;12.48;100.00
8569;BME280;4322;51.104;-4.162;2022-10-16T03:12:47;102419.50;;;12.37;100.00
8569;BME280;4322;51.104;-4.162;2022-10-16T03:15:15;102414.66;;;12.25;100.00
8569;BME280;4322;51.104;-4.162;2022-10-16T03:17:44;102409.59;;;12.19;100.00
8569;BME280;4322;51.104;-4.162;2022-10-16T03:20:12;102414.88;;;12.17;100.00
8569;BME280;4322;51.104;-4.162;2022-10-16T03:22:40;102414.81;;;12.19;100.00
8569;BME280;4322;51.104;-4.162;2022-10-16T03:25:08;102405.31;;;12.16;100.00
8569;BME280;4322;51.104;-4.162;2022-10-16T03:27:36;102392.19;;;12.18;100.00
8569;BME280;4322;51.104;-4.162;2022-10-16T03:30:05;102371.41;;;12.15;100.00
8569;BME280;4322;51.104;-4.162;2022-10-16T03:32:33;102360.81;;;12.18;100.00
8569;BME280;4322;51.104;-4.162;2022-10-16T03:35:02;102371.25;;;12.19;100.00
8569;BME280;4322;51.104;-4.162;2022-10-16T03:37:30;102377.34;;;12.20;100.00
8569;BME280;4322;51.104;-4.162;2022-10-16T03:39:58;102368.56;;;12.22;100.00
8569;BME280;4322;51.104;-4.162;2022-10-16T03:42:26;102350.25;;;12.22;100.00
8569;BME280;4322;51.104;-4.162;2022-10-16T03:44:54;102343.16;;;12.26;100.00
8569;BME280;4322;51.104;-4.162;2022-10-16T03:47:22;102325.63;;;12.29;100.00
8569;BME280;4322;51.104;-4.162;2022-10-16T03:49:51;102321.06;;;12.36;100.00
8569;BME280;4322;51.104;-4.162;2022-10-16T03:52:20;102311.41;;;12.38;100.00
8569;BME280;4322;51.104;-4.162;2022-10-16T03:54:48;102309.50;;;12.43;100.00
8569;BME280;4322;51.104;-4.162;2022-10-16T03:57:16;102306.72;;;12.47;100.00
8569;BME280;4322;51.104;-4.162;2022-10-16T03:59:44;102303.97;;;12.52;100.00
8569;BME280;4322;51.104;-4.162;2022-10-16T04:02:12;102293.44;;;12.55;100.00
8569;BME280;4322;51.104;-4.162;2022-10-16T04:04:40;102296.75;;;12.60;100.00
8569;BME280;4322;51.104;-4.162;2022-10-16T04:07:08;102302.66;;;12.65;100.00
8569;BME280;4322;51.104;-4.162;2022-10-16T04:09:37;102320.97;;;12.65;100.00
8569;BME280;4322;51.104;-4.162;2022-10-16T04:12:05;102329.03;;;12.59;100.00
8569;BME280;4322;51.104;-4.162;2022-10-16T04:14:33;102326.38;;;12.33;100.00
8569;BME280;4322;51.104;-4.162;2022-10-16T04:17:01;102335.00;;;12.09;100.00
8569;BME280;4322;51.104;-4.162;2022-10-16T04:19:29;102330.28;;;11.90;100.00
8569;BME280;4322;51.104;-4.162;2022-10-16T04:21:57;102329.81;;;11.78;100.00
8569;BME280;4322;51.104;-4.162;2022-10-16T04:24:25;102335.28;;;11.69;100.00
8569;BME280;4322;51.104;-4.162;2022-10-16T04:26:54;102325.84;;;11.63;100.00
8569;BME280;4322;51.104;-4.162;2022-10-16T04:29:22;102299.84;;;11.60;100.00
8569;BME280;4322;51.104;-4.162;2022-10-16T04:31:50;102255.56;;;11.56;100.00
8569;BME280;4322;51.104;-4.162;2022-10-16T04:34:18;102222.56;;;11.53;100.00
8569;BME280;4322;51.104;-4.162;2022-10-16T04:36:47;102187.03;;;11.49;100.00
8569;BME280;4322;51.104;-4.162;2022-10-16T04:39:16;102159.28;;;11.45;100.00
8569;BME280;4322;51.104;-4.162;2022-10-16T04:41:44;102123.69;;;11.43;100.00
8569;BME280;4322;51.104;-4.162;2022-10-16T04:44:14;102098.56;;;11.40;100.00
8569;BME280;4322;51.104;-4.162;2022-10-16T04:46:42;102075.94;;;11.39;100.00
8569;BME280;4322;51.104;-4.162;2022-10-16T04:49:10;102057.66;;;11.41;100.00
8569;BME280;4322;51.104;-4.162;2022-10-16T04:51:38;102027.22;;;11.40;100.00
8569;BME280;4322;51.104;-4.162;2022-10-16T04:54:06;102014.22;;;11.38;100.00
8569;BME280;4322;51.104;-4.162;2022-10-16T04:56:34;101998.56;;;11.38;100.00
8569;BME280;4322;51.104;-4.162;2022-10-16T04:59:09;101990.75;;;11.38;100.00
8569;BME280;4322;51.104;-4.162;2022-10-16T05:01:38;101990.69;;;11.40;100.00
8569;BME280;4322;51.104;-4.162;2022-10-16T05:04:07;101986.41;;;11.37;100.00
8569;BME280;4322;51.104;-4.162;2022-10-16T05:06:35;101990.94;;;11.32;100.00
8569;BME280;4322;51.104;-4.162;2022-10-16T05:09:05;101985.00;;;11.27;100.00
8569;BME280;4322;51.104;-4.162;2022-10-16T05:11:33;101991.22;;;11.23;100.00
8569;BME280;4322;51.104;-4.162;2022-10-16T05:14:02;101987.81;;;11.21;100.00
8569;BME280;4322;51.104;-4.162;2022-10-16T05:16:30;101993.13;;;11.18;100.00
8569;BME280;4322;51.104;-4.162;2022-10-16T05:18:59;101993.22;;;11.15;100.00
8569;BME280;4322;51.104;-4.162;2022-10-16T05:21:47;101992.44;;;11.13;100.00
8569;BME280;4322;51.104;-4.162;2022-10-16T05:24:16;102001.13;;;11.12;100.00
8569;BME280;4322;51.104;-4.162;2022-10-16T05:26:44;102007.31;;;11.09;100.00
8569;BME280;4322;51.104;-4.162;2022-10-16T05:29:11;102003.84;;;11.09;100.00
8569;BME280;4322;51.104;-4.162;2022-10-16T05:31:39;102008.16;;;11.10;100.00
8569;BME280;4322;51.104;-4.162;2022-10-16T05:34:09;102002.16;;;11.08;100.00
8569;BME280;4322;51.104;-4.162;2022-10-16T05:36:37;102001.34;;;11.06;100.00
8569;BME280;4322;51.104;-4.162;2022-10-16T05:39:05;102003.13;;;11.04;100.00
8569;BME280;4322;51.104;-4.162;2022-10-16T05:41:32;102012.78;;;11.02;100.00
8569;BME280;4322;51.104;-4.162;2022-10-16T05:44:04;102019.81;;;11.00;100.00
8569;BME280;4322;51.104;-4.162;2022-10-16T05:46:32;102018.16;;;10.96;100.00
8569;BME280;4322;51.104;-4.162;2022-10-16T05:49:00;102027.00;;;10.92;100.00
8569;BME280;4322;51.104;-4.162;2022-10-16T05:51:29;102033.28;;;10.85;100.00
8569;BME280;4322;51.104;-4.162;2022-10-16T05:53:57;102039.53;;;10.79;100.00
8569;BME280;4322;51.104;-4.162;2022-10-16T05:56:25;102048.41;;;10.73;100.00
8569;BME280;4322;51.104;-4.162;2022-10-16T05:58:53;102061.50;;;10.72;100.00
8569;BME280;4322;51.104;-4.162;2022-10-16T06:01:21;102067.72;;;10.66;100.00
8569;BME280;4322;51.104;-4.162;2022-10-16T06:03:51;102073.03;;;10.63;100.00
8569;BME280;4322;51.104;-4.162;2022-10-16T06:06:21;102075.72;;;10.60;100.00
8569;BME280;4322;51.104;-4.162;2022-10-16T06:08:54;102069.72;;;10.58;100.00
8569;BME280;4322;51.104;-4.162;2022-10-16T06:11:24;102069.78;;;10.55;100.00
8569;BME280;4322;51.104;-4.162;2022-10-16T06:13:53;102069.88;;;10.52;100.00
8569;BME280;4322;51.104;-4.162;2022-10-16T06:16:23;102080.28;;;10.52;100.00
8569;BME280;4322;51.104;-4.162;2022-10-16T06:18:52;102089.75;;;10.56;100.00
8569;BME280;4322;51.104;-4.162;2022-10-16T06:21:22;102083.59;;;10.59;100.00
8569;BME280;4322;51.104;-4.162;2022-10-16T06:23:54;102085.22;;;10.63;100.00
8569;BME280;4322;51.104;-4.162;2022-10-16T06:26:24;102093.88;;;10.65;100.00
8569;BME280;4322;51.104;-4.162;2022-10-16T06:28:54;102093.03;;;10.63;100.00
8569;BME280;4322;51.104;-4.162;2022-10-16T06:31:23;102096.56;;;10.60;100.00
8569;BME280;4322;51.104;-4.162;2022-10-16T06:33:54;102096.56;;;10.60;100.00
8569;BME280;4322;51.104;-4.162;2022-10-16T06:36:23;102100.97;;;10.58;100.00
8569;BME280;4322;51.104;-4.162;2022-10-16T06:38:52;102110.63;;;10.55;100.00
8569;BME280;4322;51.104;-4.162;2022-10-16T06:41:22;102122.84;;;10.53;100.00
8569;BME280;4322;51.104;-4.162;2022-10-16T06:43:50;102128.94;;;10.52;100.00
8569;BME280;4322;51.104;-4.162;2022-10-16T06:46:20;102139.44;;;10.50;100.00
8569;BME280;4322;51.104;-4.162;2022-10-16T06:48:48;102136.78;;;10.52;100.00
8569;BME280;4322;51.104;-4.162;2022-10-16T06:51:17;102139.44;;;10.50;100.00
8569;BME280;4322;51.104;-4.162;2022-10-16T06:53:47;102133.38;;;10.50;100.00
8569;BME280;4322;51.104;-4.162;2022-10-16T06:56:33;102133.50;;;10.45;100.00
8569;BME280;4322;51.104;-4.162;2022-10-16T06:59:01;102134.38;;;10.44;100.00
8569;BME280;4322;51.104;-4.162;2022-10-16T07:01:29;102156.16;;;10.42;100.00
8569;BME280;4322;51.104;-4.162;2022-10-16T07:03:57;102150.16;;;10.38;100.00
8569;BME280;4322;51.104;-4.162;2022-10-16T07:06:26;102149.41;;;10.35;100.00
8569;BME280;4322;51.104;-4.162;2022-10-16T07:08:54;102156.44;;;10.31;100.00
8569;BME280;4322;51.104;-4.162;2022-10-16T07:11:23;102167.88;;;10.27;100.00
8569;BME280;4322;51.104;-4.162;2022-10-16T07:13:53;102175.69;;;10.26;100.00
8569;BME280;4322;51.104;-4.162;2022-10-16T07:16:23;102186.19;;;10.23;100.00
8569;BME280;4322;51.104;-4.162;2022-10-16T07:18:53;102193.16;;;10.22;100.00
8569;BME280;4322;51.104;-4.162;2022-10-16T07:21:26;102195.72;;;10.24;100.00
8569;BME280;4322;51.104;-4.162;2022-10-16T07:23:58;102188.72;;;10.26;100.00
8569;BME280;4322;51.104;-4.162;2022-10-16T07:26:29;102193.88;;;10.29;100.00
8569;BME280;4322;51.104;-4.162;2022-10-16T07:28:59;102202.53;;;10.29;100.00
8569;BME280;4322;51.104;-4.162;2022-10-16T07:31:28;102205.97;;;10.31;100.00
8569;BME280;4322;51.104;-4.162;2022-10-16T07:37:13;102211.16;;;10.31;100.00
8569;BME280;4322;51.104;-4.162;2022-10-16T07:39:41;102220.72;;;10.32;100.00
8569;BME280;4322;51.104;-4.162;2022-10-16T07:42:09;102213.69;;;10.34;100.00
8569;BME280;4322;51.104;-4.162;2022-10-16T07:44:38;102222.25;;;10.39;100.00
8569;BME280;4322;51.104;-4.162;2022-10-16T07:47:07;102222.09;;;10.45;100.00
8569;BME280;4322;51.104;-4.162;2022-10-16T07:49:35;102224.63;;;10.48;100.00
8569;BME280;4322;51.104;-4.162;2022-10-16T07:52:03;102226.34;;;10.49;100.00
8569;BME280;4322;51.104;-4.162;2022-10-16T07:54:31;102235.88;;;10.50;100.00
8569;BME280;4322;51.104;-4.162;2022-10-16T07:56:59;102235.81;;;10.52;100.00
8569;BME280;4322;51.104;-4.162;2022-10-16T07:59:27;102239.22;;;10.55;100.00
8569;BME280;4322;51.104;-4.162;2022-10-16T08:01:57;102242.59;;;10.59;100.00
8569;BME280;4322;51.104;-4.162;2022-10-16T08:04:25;102261.47;;;10.68;100.00
8569;BME280;4322;51.104;-4.162;2022-10-16T08:06:53;102261.16;;;10.81;100.00
8569;BME280;4322;51.104;-4.162;2022-10-16T08:09:21;102268.50;;;10.99;100.00
8569;BME280;4322;51.104;-4.162;2022-10-16T08:11:49;102268.91;;;11.14;100.00
8569;BME280;4322;51.104;-4.162;2022-10-16T08:14:18;102266.84;;;11.27;100.00
8569;BME280;4322;51.104;-4.162;2022-10-16T08:16:46;102269.06;;;11.41;100.00
8569;BME280;4322;51.104;-4.162;2022-10-16T08:19:15;102275.59;;;11.55;100.00
8569;BME280;4322;51.104;-4.162;2022-10-16T08:21:46;102281.28;;;11.71;100.00
8569;BME280;4322;51.104;-4.162;2022-10-16T08:24:14;102279.09;;;11.85;100.00
8569;BME280;4322;51.104;-4.162;2022-10-16T08:26:42;102291.63;;;12.02;100.00
8569;BME280;4322;51.104;-4.162;2022-10-16T08:29:10;102290.31;;;12.16;100.00
8569;BME280;4322;51.104;-4.162;2022-10-16T08:31:38;102281.34;;;12.25;100.00
8569;BME280;4322;51.104;-4.162;2022-10-16T08:34:06;102292.34;;;12.34;100.00
8569;BME280;4322;51.104;-4.162;2022-10-16T08:36:36;102288.78;;;12.37;100.00
8569;BME280;4322;51.104;-4.162;2022-10-16T08:39:04;102299.31;;;12.34;100.00
8569;BME280;4322;51.104;-4.162;2022-10-16T08:41:48;102306.47;;;12.29;100.00
8569;BME280;4322;51.104;-4.162;2022-10-16T08:44:40;102310.28;;;12.19;100.00
8569;BME280;4322;51.104;-4.162;2022-10-16T08:47:15;102321.78;;;12.13;100.00
8569;BME280;4322;51.104;-4.162;2022-10-16T08:49:56;102323.59;;;12.11;100.00
8569;BME280;4322;51.104;-4.162;2022-10-16T08:52:51;102329.75;;;12.09;100.00
8569;BME280;4322;51.104;-4.162;2022-10-16T08:55:30;102329.06;;;12.04;100.00
8569;BME280;4322;51.104;-4.162;2022-10-16T08:58:00;102334.44;;;11.98;100.00
8569;BME280;4322;51.104;-4.162;2022-10-16T09:00:28;102340.75;;;11.90;100.00
8569;BME280;4322;51.104;-4.162;2022-10-16T09:03:04;102335.72;;;11.84;100.00
8569;BME280;4322;51.104;-4.162;2022-10-16T09:05:49;102340.22;;;11.79;100.00
8569;BME280;4322;51.104;-4.162;2022-10-16T09:08:28;102344.69;;;11.74;100.00
8569;BME280;4322;51.104;-4.162;2022-10-16T09:10:59;102349.13;;;11.72;100.00
8569;BME280;4322;51.104;-4.162;2022-10-16T09:13:36;102343.09;;;11.70;100.00
8569;BME280;4322;51.104;-4.162;2022-10-16T09:16:14;102343.13;;;11.69;100.00
8569;BME280;4322;51.104;-4.162;2022-10-16T09:18:50;102347.47;;;11.68;100.00
8569;BME280;4322;51.104;-4.162;2022-10-16T09:21:22;102347.50;;;11.67;100.00
8569;BME280;4322;51.104;-4.162;2022-10-16T09:23:54;102345.75;;;11.67;100.00
8569;BME280;4322;51.104;-4.162;2022-10-16T09:26:24;102345.75;;;11.67;100.00
8569;BME280;4322;51.104;-4.162;2022-10-16T09:28:53;102343.09;;;11.70;100.00
8569;BME280;4322;51.104;-4.162;2022-10-16T09:31:22;102347.38;;;11.73;100.00
8569;BME280;4322;51.104;-4.162;2022-10-16T09:33:53;102344.69;;;11.76;100.00
8569;BME280;4322;51.104;-4.162;2022-10-16T09:36:23;102338.50;;;11.78;100.00
8569;BME280;4322;51.104;-4.162;2022-10-16T09:39:04;102341.03;;;11.81;100.00
8569;BME280;4322;51.104;-4.162;2022-10-16T09:41:34;102339.22;;;11.83;100.00
8569;BME280;4322;51.104;-4.162;2022-10-16T09:44:06;102334.78;;;11.87;100.00
8569;BME280;4322;51.104;-4.162;2022-10-16T09:46:44;102333.69;;;11.94;100.00
8569;BME280;4322;51.104;-4.162;2022-10-16T09:49:23;102330.72;;;12.06;100.00
8569;BME280;4322;51.104;-4.162;2022-10-16T09:52:03;102336.47;;;12.17;100.00
8569;BME280;4322;51.104;-4.162;2022-10-16T09:54:33;102329.16;;;12.28;100.00
8569;BME280;4322;51.104;-4.162;2022-10-16T09:57:05;102320.97;;;12.39;100.00
8569;BME280;4322;51.104;-4.162;2022-10-16T09:59:33;102322.41;;;12.47;100.00
8569;BME280;4322;51.104;-4.162;2022-10-16T10:02:04;102311.81;;;12.52;100.00
8569;BME280;4322;51.104;-4.162;2022-10-16T10:04:40;102311.66;;;12.57;100.00
8569;BME280;4322;51.104;-4.162;2022-10-16T10:07:17;102307.97;;;12.64;100.00
8569;BME280;4322;51.104;-4.162;2022-10-16T10:09:47;102305.09;;;12.71;100.00
8569;BME280;4322;51.104;-4.162;2022-10-16T10:12:20;102304.03;;;12.77;100.00
8569;BME280;4322;51.104;-4.162;2022-10-16T10:14:54;102309.09;;;12.81;100.00
8569;BME280;4322;51.104;-4.162;2022-10-16T10:17:24;102312.47;;;12.85;100.00
8569;BME280;4322;51.104;-4.162;2022-10-16T10:19:54;102314.16;;;12.86;100.00
8569;BME280;4322;51.104;-4.162;2022-10-16T10:22:29;102321.97;;;12.87;100.00
8569;BME280;4322;51.104;-4.162;2022-10-16T10:25:18;102316.66;;;12.90;100.00
8569;BME280;4322;51.104;-4.162;2022-10-16T10:28:00;102316.56;;;12.93;100.00
8569;BME280;4322;51.104;-4.162;2022-10-16T10:30:38;102312.03;;;12.97;100.00
8569;BME280;4322;51.104;-4.162;2022-10-16T10:33:20;102317.94;;;13.03;100.00
8569;BME280;4322;51.104;-4.162;2022-10-16T10:35:57;102316.03;;;13.08;100.00
8569;BME280;4322;51.104;-4.162;2022-10-16T10:38:38;102314.13;;;13.13;100.00
8569;BME280;4322;51.104;-4.162;2022-10-16T10:41:21;102317.41;;;13.19;100.00
8569;BME280;4322;51.104;-4.162;2022-10-16T10:44:05;102318.88;;;13.27;100.00
8569;BME280;4322;51.104;-4.162;2022-10-16T10:46:41;102316.94;;;13.32;100.00
8569;BME280;4322;51.104;-4.162;2022-10-16T10:49:26;102320.19;;;13.39;100.00
8569;BME280;4322;51.104;-4.162;2022-10-16T10:52:07;102319.03;;;13.47;100.00
8569;BME280;4322;51.104;-4.162;2022-10-16T10:54:47;102320.44;;;13.56;100.00
8569;BME280;4322;51.104;-4.162;2022-10-16T10:57:27;102324.63;;;13.61;100.00
8569;BME280;4322;51.104;-4.162;2022-10-16T11:00:07;102329.56;;;13.69;100.00
8569;BME280;4322;51.104;-4.162;2022-10-16T11:02:44;102330.16;;;13.76;100.00
8569;BME280;4322;51.104;-4.162;2022-10-16T11:05:26;102330.69;;;13.85;100.00
8569;BME280;4322;51.104;-4.162;2022-10-16T11:07:59;102324.25;;;13.94;100.00
8569;BME280;4322;51.104;-4.162;2022-10-16T11:10:42;102322.19;;;14.02;100.00
8569;BME280;4322;51.104;-4.162;2022-10-16T11:13:21;102318.41;;;14.09;100.00
8569;BME280;4322;51.104;-4.162;2022-10-16T11:15:53;102313.59;;;14.20;100.00
8569;BME280;4322;51.104;-4.162;2022-10-16T11:18:29;102292.19;;;14.30;100.00
8569;BME280;4322;51.104;-4.162;2022-10-16T11:21:04;102288.31;;;14.41;100.00
8569;BME280;4322;51.104;-4.162;2022-10-16T11:23:38;102256.53;;;14.48;100.00
8569;BME280;4322;51.104;-4.162;2022-10-16T11:26:15;102241.91;;;14.63;100.00
8569;BME280;4322;51.104;-4.162;2022-10-16T11:28:49;102203.59;;;14.79;100.00
8569;BME280;4322;51.104;-4.162;2022-10-16T11:31:24;102183.69;;;14.94;100.00
8569;BME280;4322;51.104;-4.162;2022-10-16T11:33:59;102162.84;;;15.09;100.00
8569;BME280;4322;51.104;-4.162;2022-10-16T11:36:36;102163.84;;;15.25;100.00
8569;BME280;4322;51.104;-4.162;2022-10-16T11:39:16;102144.81;;;15.39;100.00
8569;BME280;4322;51.104;-4.162;2022-10-16T11:41:49;102134.31;;;15.58;100.00
8569;BME280;4322;51.104;-4.162;2022-10-16T11:44:33;102127.38;;;15.74;100.00
8569;BME280;4322;51.104;-4.162;2022-10-16T11:47:11;102138.03;;;15.89;100.00
8569;BME280;4322;51.104;-4.162;2022-10-16T11:50:06;102286.44;;;16.01;100.00
8569;BME280;4322;51.104;-4.162;2022-10-16T11:52:40;102466.66;;;16.09;100.00
8569;BME280;4322;51.104;-4.162;2022-10-16T11:55:14;102539.78;;;16.22;100.00
8569;BME280;4322;51.104;-4.162;2022-10-16T11:57:46;102591.16;;;16.30;100.00
8569;BME280;4322;51.104;-4.162;2022-10-16T12:00:22;102638.22;;;16.36;100.00
8569;BME280;4322;51.104;-4.162;2022-10-16T12:02:58;102665.38;;;16.38;100.00
8569;BME280;4322;51.104;-4.162;2022-10-16T12:05:35;102686.00;;;16.47;100.00
8569;BME280;4322;51.104;-4.162;2022-10-16T12:08:12;102717.59;;;16.47;100.00
8569;BME280;4322;51.104;-4.162;2022-10-16T12:10:43;102731.75;;;16.45;100.00
8569;BME280;4322;51.104;-4.162;2022-10-16T12:13:29;102743.34;;;16.41;100.00
8569;BME280;4322;51.104;-4.162;2022-10-16T12:16:07;102741.06;;;16.53;100.00
8569;BME280;4322;51.104;-4.162;2022-10-16T12:18:47;102756.06;;;16.72;100.00
8569;BME280;4322;51.104;-4.162;2022-10-16T12:21:17;102767.00;;;16.83;100.00
8569;BME280;4322;51.104;-4.162;2022-10-16T12:23:51;102760.66;;;17.07;100.00
8569;BME280;4322;51.104;-4.162;2022-10-16T12:26:27;102759.22;;;17.20;100.00
8569;BME280;4322;51.104;-4.162;2022-10-16T12:29:08;102751.13;;;17.23;100.00
8569;BME280;4322;51.104;-4.162;2022-10-16T12:31:44;102749.31;;;17.25;100.00
8569;BME280;4322;51.104;-4.162;2022-10-16T12:34:27;102741.19;;;17.30;100.00
8569;BME280;4322;51.104;-4.162;2022-10-16T12:36:56;102742.03;;;17.30;100.00
8569;BME280;4322;51.104;-4.162;2022-10-16T12:39:35;102714.59;;;17.34;100.00
8569;BME280;4322;51.104;-4.162;2022-10-16T12:42:06;102706.56;;;17.37;100.00
8569;BME280;4322;51.104;-4.162;2022-10-16T12:44:46;102690.47;;;17.43;100.00
8569;BME280;4322;51.104;-4.162;2022-10-16T12:47:24;102689.69;;;17.41;100.00
8569;BME280;4322;51.104;-4.162;2022-10-16T12:50:03;102675.00;;;17.36;100.00
8569;BME280;4322;51.104;-4.162;2022-10-16T12:52:50;102658.47;;;17.32;100.00
8569;BME280;4322;51.104;-4.162;2022-10-16T12:55:20;102664.38;;;17.56;100.00
8569;BME280;4322;51.104;-4.162;2022-10-16T12:58:00;102644.06;;;17.76;100.00
8569;BME280;4322;51.104;-4.162;2022-10-16T13:00:40;102632.41;;;17.80;100.00
8569;BME280;4322;51.104;-4.162;2022-10-16T13:03:43;102613.41;;;17.74;100.00
8569;BME280;4322;51.104;-4.162;2022-10-16T13:06:33;102600.06;;;17.94;100.00
8569;BME280;4322;51.104;-4.162;2022-10-16T13:09:13;102599.28;;;17.92;100.00
8569;BME280;4322;51.104;-4.162;2022-10-16T13:11:55;102581.84;;;18.07;100.00
8569;BME280;4322;51.104;-4.162;2022-10-16T13:14:40;102561.78;;;18.20;100.00
8569;BME280;4322;51.104;-4.162;2022-10-16T13:17:19;102537.56;;;18.29;100.00
8569;BME280;4322;51.104;-4.162;2022-10-16T13:19:55;102522.69;;;18.26;100.00